Airfield :
LOGIN :

Register | Disclaimer

   EN    FR    IT 

 










Legend :    VFR   Marginal VFR   IFR   Intensive IFR   Very Intensive IFR
Visi :
Ceiling :
>= 8 km
>= 3000ft
5 to 8 km
1000 to 3000 ft
1500m to 5 km
500 to 1000 ft
800 to 1500m
200 to 500 ft
< 800m
< 200 ft
Symbols :   Thunderstorms  Fog  Heavy snow  Heavy precipitations  Wind > 20 kt
SIGMETs :     Misc.  Thunderstorms  Icing  Turbulence  Mountain Waves  Volcanic Ashes






- Airport Elevation : 11 ft
- IATA code : MJV


LELC - Murcia San Javier

CURRENT METAR :
  • 070400Z AUTO 26004KT 4700 BR NSC 15/14 Q1014

EXPIRED METARs :
  • 070330Z AUTO 25003KT 220V280 4700 BR NSC 15/14 Q1015
  • 070300Z AUTO 24002KT 5000 BR NSC 15/14 Q1015
  • 070230Z AUTO 21003KT 150V240 3600 BR NSC 15/14 Q1015
  • 070200Z AUTO 27002KT 5000 BR NSC 15/14 Q1015
  • 070130Z AUTO 26003KT 4500 BR NSC 15/14 Q1015

TAF TAF LELC
Valid from the 07 at 00:00 until the 08 at 00:00 UTC


062300Z 0700/0724 29004KT 9999 SCT025 TX18/0713Z TN10/0706Z
PROB40
TEMPO 0700/0707 3000 BR BKN014
BECMG 0711/0713 14010KT
BECMG 0718/0720 30004KT



MET'MAP, your aeronautical weather chart ! - Copyright ORBIFLY December 2007 - Disclaimer

ORBIFLY MET'MAP TEAM :

Programming & Development : Alexandra Zaïnal
Original concept : Baudouin d'Aumeries
Technical & hardware support : Manuel Goepfert
Assistance : Marc-Olivier Méhu




SOURCES & CREDITS :

   NOAA